createdAt,value
2018-12-05T00:01:05.801Z,0.80
2018-12-05T00:03:33.265Z,0.60
2018-12-05T00:06:00.938Z,0.50
2018-12-05T00:08:28.390Z,0.40
2018-12-05T00:10:55.845Z,0.40
2018-12-05T00:13:23.311Z,0.40
2018-12-05T00:15:50.765Z,0.50
2018-12-05T00:18:18.225Z,0.50
2018-12-05T00:20:45.713Z,0.60
2018-12-05T00:23:13.173Z,0.60
2018-12-05T00:25:40.629Z,0.70
2018-12-05T00:28:08.108Z,0.70
2018-12-05T00:30:35.655Z,0.70
2018-12-05T00:33:03.189Z,0.60
2018-12-05T00:35:30.652Z,0.50
2018-12-05T00:37:58.102Z,0.60
2018-12-05T00:40:25.554Z,0.50
2018-12-05T00:42:53.041Z,0.50
2018-12-05T00:45:21.057Z,0.60
2018-12-05T00:47:48.514Z,0.70
2018-12-05T00:50:16.005Z,0.80
2018-12-05T00:52:43.473Z,0.80
2018-12-05T00:55:10.933Z,0.70
2018-12-05T00:57:38.385Z,0.70
2018-12-05T01:00:07.730Z,0.70
2018-12-05T01:02:35.266Z,0.90
2018-12-05T01:05:03.056Z,1.00
2018-12-05T01:07:30.550Z,0.80
2018-12-05T01:09:58.001Z,0.80
2018-12-05T01:12:25.545Z,0.50
2018-12-05T01:14:53.005Z,0.40
2018-12-05T01:17:20.482Z,0.60
2018-12-05T01:19:47.946Z,0.80
2018-12-05T01:22:15.401Z,0.90
2018-12-05T01:24:42.860Z,0.90
2018-12-05T01:27:10.310Z,0.80
2018-12-05T01:29:37.769Z,0.80
2018-12-05T01:32:05.217Z,0.90
2018-12-05T01:34:32.677Z,1.00
2018-12-05T01:37:00.145Z,1.00
2018-12-05T01:39:27.596Z,1.00
2018-12-05T01:41:55.077Z,1.10
2018-12-05T01:44:22.537Z,1.00
2018-12-05T01:46:50.028Z,1.00
2018-12-05T01:49:17.518Z,1.00
2018-12-05T01:51:44.985Z,0.90
2018-12-05T01:54:12.453Z,1.00
2018-12-05T01:56:39.913Z,0.90
2018-12-05T01:59:07.360Z,0.90
2018-12-05T02:01:34.832Z,1.00
2018-12-05T02:04:02.283Z,1.20
2018-12-05T02:06:29.745Z,1.20
2018-12-05T02:08:57.242Z,0.90
2018-12-05T02:11:24.697Z,0.90
2018-12-05T02:13:52.150Z,1.00
2018-12-05T02:16:19.694Z,1.10
2018-12-05T02:18:47.161Z,1.10
2018-12-05T02:21:14.669Z,1.10
2018-12-05T02:23:42.167Z,1.20
2018-12-05T02:26:09.633Z,1.30
2018-12-05T02:28:37.090Z,1.30
2018-12-05T02:31:04.586Z,1.30
2018-12-05T02:33:32.054Z,1.20
2018-12-05T02:35:59.633Z,1.30
2018-12-05T02:38:27.133Z,1.40
2018-12-05T02:40:54.599Z,1.30
2018-12-05T02:43:22.051Z,1.40
2018-12-05T02:45:49.568Z,1.40
2018-12-05T02:48:17.058Z,1.30
2018-12-05T02:50:44.539Z,1.20
2018-12-05T02:53:11.990Z,1.20
2018-12-05T02:55:39.438Z,1.20
2018-12-05T02:58:06.889Z,1.10
2018-12-05T03:00:34.385Z,1.10
2018-12-05T03:03:01.849Z,0.80
2018-12-05T03:05:29.325Z,0.70
2018-12-05T03:07:56.865Z,0.70
2018-12-05T03:10:24.329Z,0.70
2018-12-05T03:12:51.798Z,0.80
2018-12-05T03:15:19.255Z,0.70
2018-12-05T03:17:46.716Z,0.90
2018-12-05T03:20:14.276Z,1.00
2018-12-05T03:22:41.734Z,1.00
2018-12-05T03:25:09.226Z,1.10
2018-12-05T03:27:36.699Z,0.80
2018-12-05T03:30:04.830Z,0.40
2018-12-05T03:32:32.390Z,0.70
2018-12-05T03:34:59.972Z,0.80
2018-12-05T03:37:27.434Z,1.00
2018-12-05T03:39:54.884Z,0.80
2018-12-05T03:42:22.395Z,0.40
2018-12-05T03:44:49.859Z,0.40
2018-12-05T03:47:17.326Z,0.40
2018-12-05T03:49:46.723Z,0.70
2018-12-05T03:52:14.388Z,0.90
2018-12-05T03:54:41.851Z,0.70
2018-12-05T03:57:09.311Z,0.50
2018-12-05T03:59:36.785Z,0.50
2018-12-05T04:02:04.319Z,0.70
2018-12-05T04:04:31.783Z,0.90
2018-12-05T04:06:59.284Z,0.80
2018-12-05T04:09:26.742Z,0.80
2018-12-05T04:11:54.441Z,0.60
2018-12-05T04:14:21.907Z,0.70
2018-12-05T04:16:49.371Z,0.70
2018-12-05T04:22:05.104Z,0.50
2018-12-05T04:24:32.682Z,0.30
2018-12-05T04:27:00.186Z,0.30
2018-12-05T04:29:27.678Z,0.30
2018-12-05T04:31:55.135Z,0.30
2018-12-05T04:34:22.610Z,0.30
2018-12-05T04:36:50.069Z,0.40
2018-12-05T04:39:17.779Z,0.30
2018-12-05T04:41:45.278Z,0.20
2018-12-05T04:44:12.745Z,0.10
2018-12-05T04:46:40.202Z,0.00
2018-12-05T04:49:07.665Z,0.10
2018-12-05T04:51:35.123Z,0.10
2018-12-05T04:54:02.679Z,0.20
2018-12-05T04:56:30.145Z,0.20
2018-12-05T04:58:57.616Z,0.10
2018-12-05T05:01:25.066Z,0.20
2018-12-05T05:03:52.539Z,0.10
2018-12-05T05:06:20.000Z,0.20
2018-12-05T05:08:47.499Z,0.00
2018-12-05T05:11:14.955Z,0.10
2018-12-05T05:13:42.416Z,0.00
2018-12-05T05:16:09.915Z,0.10
2018-12-05T05:18:37.399Z,0.10
2018-12-05T05:21:04.863Z,0.20
2018-12-05T05:23:32.339Z,0.30
2018-12-05T05:25:59.919Z,0.20
2018-12-05T05:28:27.379Z,0.20
2018-12-05T05:30:54.839Z,0.30
2018-12-05T05:33:22.294Z,0.20
2018-12-05T05:35:49.754Z,0.20
2018-12-05T05:38:17.211Z,0.10
2018-12-05T05:40:44.774Z,0.20
2018-12-05T05:43:12.275Z,0.20
2018-12-05T05:45:39.736Z,0.40
2018-12-05T05:48:07.190Z,0.50
2018-12-05T05:50:34.669Z,0.20
2018-12-05T05:53:02.174Z,0.20
2018-12-05T05:55:29.632Z,0.40
2018-12-05T05:57:57.083Z,0.40
2018-12-05T06:00:24.581Z,0.20
2018-12-05T06:02:52.037Z,0.20
2018-12-05T06:05:19.495Z,0.30
2018-12-05T06:07:47.003Z,0.20
2018-12-05T06:10:14.459Z,0.20
2018-12-05T06:12:41.938Z,0.30
2018-12-05T06:15:09.426Z,0.20
2018-12-05T06:17:36.918Z,0.30
2018-12-05T06:20:04.658Z,0.20
2018-12-05T06:22:33.046Z,0.30
2018-12-05T06:25:00.630Z,0.40
2018-12-05T06:27:28.093Z,0.30
2018-12-05T06:29:55.590Z,0.20
2018-12-05T06:32:24.086Z,0.00
2018-12-05T06:34:51.535Z,0.10
2018-12-05T06:37:19.011Z,0.20
2018-12-05T06:39:46.474Z,0.30
2018-12-05T06:42:13.946Z,0.30
2018-12-05T06:44:41.407Z,0.10
2018-12-05T06:47:09.859Z,0.30
2018-12-05T06:49:37.324Z,0.20
2018-12-05T06:52:04.826Z,0.30
2018-12-05T06:54:32.318Z,0.10
2018-12-05T06:56:59.794Z,0.00
2018-12-05T06:59:27.248Z,0.10
2018-12-05T07:01:54.719Z,0.10
2018-12-05T07:04:22.186Z,0.10
2018-12-05T07:06:49.663Z,0.00
2018-12-05T07:09:17.189Z,0.20
2018-12-05T07:11:44.666Z,0.10
2018-12-05T07:14:12.142Z,0.10
2018-12-05T07:16:39.614Z,0.10
2018-12-05T07:19:07.082Z,0.10
2018-12-05T07:21:34.638Z,0.20
2018-12-05T07:24:02.119Z,0.20
2018-12-05T07:26:29.603Z,0.30
2018-12-05T07:28:57.062Z,0.30
2018-12-05T07:31:24.541Z,0.30
2018-12-05T07:33:52.042Z,0.20
2018-12-05T07:36:20.441Z,0.30
2018-12-05T07:38:47.919Z,0.30
2018-12-05T07:41:15.379Z,0.40
2018-12-05T07:43:42.878Z,0.40
2018-12-05T07:46:10.359Z,0.30
2018-12-05T07:48:37.821Z,0.20
2018-12-05T07:51:05.269Z,0.20
2018-12-05T07:53:32.740Z,0.40
2018-12-05T07:56:00.244Z,0.30
2018-12-05T07:58:27.713Z,0.50
2018-12-05T08:00:55.174Z,0.60
2018-12-05T08:03:22.622Z,0.40
2018-12-05T08:05:50.094Z,0.40
2018-12-05T08:08:18.857Z,0.50
2018-12-05T08:10:46.491Z,0.60
2018-12-05T08:13:13.945Z,0.70
2018-12-05T08:15:41.427Z,0.40
2018-12-05T08:18:08.884Z,0.40
2018-12-05T08:20:36.362Z,0.50
2018-12-05T08:23:03.873Z,0.50
2018-12-05T08:25:31.349Z,0.50
2018-12-05T08:27:58.811Z,0.60
2018-12-05T08:30:26.295Z,0.70
2018-12-05T08:32:53.746Z,0.80
2018-12-05T08:35:21.221Z,0.70
2018-12-05T08:37:48.717Z,0.70
2018-12-05T08:40:16.166Z,0.70
2018-12-05T08:42:43.641Z,0.70
2018-12-05T08:45:11.134Z,0.70
2018-12-05T08:47:38.590Z,0.70
2018-12-05T08:50:06.131Z,0.70
2018-12-05T08:52:33.588Z,0.70
2018-12-05T08:55:01.199Z,0.90
2018-12-05T08:57:28.786Z,0.70
2018-12-05T08:59:56.263Z,0.80
2018-12-05T09:02:23.731Z,0.80
2018-12-05T09:04:51.227Z,1.00
2018-12-05T09:07:18.745Z,1.00
2018-12-05T09:09:46.213Z,0.90
2018-12-05T09:12:13.682Z,0.90
2018-12-05T09:14:41.137Z,1.00
2018-12-05T09:17:08.618Z,1.10
2018-12-05T09:19:36.178Z,1.10
2018-12-05T09:22:03.677Z,1.10
2018-12-05T09:24:31.175Z,1.10
2018-12-05T09:26:58.645Z,1.20
2018-12-05T09:29:26.103Z,1.20
2018-12-05T09:31:53.584Z,1.20
2018-12-05T09:34:21.034Z,1.10
2018-12-05T09:36:48.502Z,1.20
2018-12-05T09:39:15.968Z,1.30
2018-12-05T09:41:43.431Z,1.30
2018-12-05T09:44:10.889Z,1.30
2018-12-05T09:46:40.298Z,1.40
2018-12-05T09:49:07.767Z,1.30
2018-12-05T09:51:35.270Z,1.40
2018-12-05T09:54:02.731Z,1.50
2018-12-05T09:56:30.207Z,1.40
2018-12-05T09:58:57.686Z,1.50
2018-12-05T10:01:25.149Z,1.50
2018-12-05T10:03:52.606Z,1.60
2018-12-05T10:06:20.074Z,1.70
2018-12-05T10:08:47.541Z,1.90
2018-12-05T10:11:15.002Z,2.10
2018-12-05T10:13:42.466Z,2.10
2018-12-05T10:16:09.986Z,2.10
2018-12-05T10:18:37.467Z,2.20
2018-12-05T10:21:04.963Z,2.20
2018-12-05T10:23:32.439Z,2.20
2018-12-05T10:25:59.916Z,2.30
2018-12-05T10:28:27.375Z,2.20
2018-12-05T10:30:54.866Z,2.40
2018-12-05T10:33:23.307Z,2.50
2018-12-05T10:35:50.761Z,2.50
2018-12-05T10:38:18.219Z,2.60
2018-12-05T10:40:45.726Z,2.60
2018-12-05T10:43:13.187Z,2.40
2018-12-05T10:45:40.680Z,2.50
2018-12-05T10:48:08.145Z,2.50
2018-12-05T10:50:35.602Z,2.50
2018-12-05T10:53:03.072Z,2.60
2018-12-05T10:55:30.534Z,2.60
2018-12-05T10:57:58.009Z,2.70
2018-12-05T11:03:34.264Z,2.60
2018-12-05T11:06:07.711Z,2.60
2018-12-05T11:08:40.846Z,2.60
2018-12-05T11:11:14.090Z,2.60
2018-12-05T11:13:47.185Z,2.50
2018-12-05T11:16:20.415Z,2.60
2018-12-05T11:18:53.668Z,2.60
2018-12-05T11:24:32.742Z,2.70
2018-12-05T11:27:00.224Z,2.70
2018-12-05T11:29:27.723Z,2.80
2018-12-05T11:31:55.204Z,2.70
2018-12-05T11:34:22.686Z,2.70
2018-12-05T11:36:50.224Z,2.60
2018-12-05T11:39:24.952Z,2.60
2018-12-05T11:41:52.462Z,2.80
2018-12-05T11:44:19.942Z,2.80
2018-12-05T11:46:48.561Z,2.90
2018-12-05T11:49:16.298Z,2.90
2018-12-05T11:51:43.769Z,2.90
2018-12-05T11:54:11.246Z,2.90
2018-12-05T11:56:38.761Z,3.00
2018-12-05T11:59:07.198Z,3.00
2018-12-05T12:01:34.689Z,3.00
2018-12-05T12:04:02.204Z,3.10
2018-12-05T12:06:29.809Z,3.20
2018-12-05T12:08:57.290Z,3.20
2018-12-05T12:11:24.811Z,3.30
2018-12-05T12:13:58.199Z,3.40
2018-12-05T12:16:25.712Z,3.30
2018-12-05T12:18:53.195Z,3.40
2018-12-05T12:21:20.664Z,3.20
2018-12-05T12:23:48.144Z,3.30
2018-12-05T12:26:15.616Z,3.30
2018-12-05T12:28:43.194Z,3.20
2018-12-05T12:31:10.660Z,3.40
2018-12-05T12:33:38.127Z,3.40
2018-12-05T12:36:09.715Z,3.50
2018-12-05T12:38:37.220Z,3.50
2018-12-05T12:41:04.728Z,3.50
2018-12-05T12:43:32.189Z,3.50
2018-12-05T12:45:59.659Z,3.50
2018-12-05T12:48:27.126Z,3.60
2018-12-05T12:50:54.603Z,3.60
2018-12-05T12:53:22.070Z,3.50
2018-12-05T12:55:49.562Z,3.40
2018-12-05T12:58:17.038Z,3.40
2018-12-05T13:00:44.558Z,3.50
2018-12-05T13:03:12.019Z,3.50
2018-12-05T13:05:39.530Z,3.50
2018-12-05T13:08:06.991Z,3.50
2018-12-05T13:10:34.531Z,3.50
2018-12-05T13:13:01.997Z,3.60
2018-12-05T13:15:29.465Z,3.70
2018-12-05T13:17:56.973Z,3.50
2018-12-05T13:20:24.442Z,3.50
2018-12-05T13:22:51.947Z,3.40
2018-12-05T13:25:19.436Z,3.50
2018-12-05T13:27:46.939Z,3.60
2018-12-05T13:30:14.480Z,3.50
2018-12-05T13:32:41.951Z,3.50
2018-12-05T13:35:09.430Z,3.50
2018-12-05T13:37:36.895Z,3.50
2018-12-05T13:40:06.266Z,3.40
2018-12-05T13:42:33.747Z,3.30
2018-12-05T13:45:01.208Z,3.40
2018-12-05T13:47:28.698Z,3.40
2018-12-05T13:49:56.158Z,3.40
2018-12-05T13:52:23.637Z,3.40
2018-12-05T13:54:51.103Z,3.50
2018-12-05T13:57:18.610Z,3.40
2018-12-05T13:59:46.086Z,3.50
2018-12-05T14:02:13.555Z,3.50
2018-12-05T14:04:41.015Z,3.50
2018-12-05T14:07:08.490Z,3.50
2018-12-05T14:09:35.950Z,3.60
2018-12-05T14:12:03.422Z,3.70
2018-12-05T14:14:30.891Z,3.80
2018-12-05T14:16:58.357Z,3.90
2018-12-05T14:19:25.834Z,3.90
2018-12-05T14:21:53.323Z,3.90
2018-12-05T14:24:20.782Z,4.00
2018-12-05T14:26:48.299Z,4.00
2018-12-05T14:29:15.778Z,4.10
2018-12-05T14:31:43.276Z,4.10
2018-12-05T14:34:10.751Z,4.20
2018-12-05T14:36:38.274Z,4.10
2018-12-05T14:39:06.331Z,4.10
2018-12-05T14:41:34.754Z,4.10
2018-12-05T14:44:02.291Z,4.10
2018-12-05T14:46:29.750Z,4.30
2018-12-05T14:48:57.211Z,4.20
2018-12-05T14:51:24.678Z,4.20
2018-12-05T14:53:52.158Z,4.20
2018-12-05T14:56:19.631Z,4.30
2018-12-05T14:58:47.100Z,4.10
2018-12-05T15:01:14.653Z,4.00
2018-12-05T15:03:42.129Z,4.00
2018-12-05T15:06:09.635Z,4.10
2018-12-05T15:08:37.134Z,4.10
2018-12-05T15:11:04.693Z,3.90
2018-12-05T15:13:32.207Z,3.90
2018-12-05T15:15:59.683Z,3.80
2018-12-05T15:18:27.170Z,3.80
2018-12-05T15:20:54.645Z,3.80
2018-12-05T15:23:22.113Z,3.90
2018-12-05T15:25:49.603Z,4.10
2018-12-05T15:28:17.132Z,4.20
2018-12-05T15:30:44.600Z,4.00
2018-12-05T15:33:12.102Z,3.80
2018-12-05T15:35:39.588Z,3.80
2018-12-05T15:38:07.127Z,3.90
2018-12-05T15:40:34.598Z,4.10
2018-12-05T15:43:02.064Z,4.00
2018-12-05T15:45:29.538Z,4.10
2018-12-05T15:47:57.014Z,4.20
2018-12-05T15:50:24.499Z,4.20
2018-12-05T15:52:51.955Z,4.00
2018-12-05T15:55:19.522Z,3.60
2018-12-05T15:57:46.988Z,3.50
2018-12-05T16:00:14.461Z,3.50
2018-12-05T16:02:41.923Z,3.70
2018-12-05T16:05:09.462Z,3.70
2018-12-05T16:07:36.947Z,3.70
2018-12-05T16:10:05.424Z,3.70
2018-12-05T16:12:32.895Z,3.70
2018-12-05T16:15:00.370Z,3.80
2018-12-05T16:17:27.834Z,3.80
2018-12-05T16:19:55.295Z,3.70
2018-12-05T16:22:22.798Z,3.80
2018-12-05T16:24:50.263Z,3.70
2018-12-05T16:27:17.774Z,3.50
2018-12-05T16:29:45.242Z,3.60
2018-12-05T16:32:13.695Z,3.50
2018-12-05T16:34:41.154Z,3.60
2018-12-05T16:37:08.619Z,3.20
2018-12-05T16:39:36.122Z,3.00
2018-12-05T16:42:03.582Z,2.90
2018-12-05T16:44:31.043Z,3.20
2018-12-05T16:46:58.554Z,3.20
2018-12-05T16:49:26.010Z,3.30
2018-12-05T16:51:53.516Z,3.40
2018-12-05T16:54:21.524Z,3.40
2018-12-05T16:56:49.034Z,3.20
2018-12-05T16:59:16.494Z,3.20
2018-12-05T17:01:43.971Z,3.30
2018-12-05T17:04:11.453Z,3.30
2018-12-05T17:06:38.917Z,3.40
2018-12-05T17:09:07.071Z,3.40
2018-12-05T17:11:34.538Z,3.40
2018-12-05T17:14:02.104Z,3.40
2018-12-05T17:16:29.565Z,3.30
2018-12-05T17:18:57.029Z,3.10
2018-12-05T17:21:24.499Z,2.90
2018-12-05T17:23:51.965Z,2.90
2018-12-05T17:26:19.470Z,2.90
2018-12-05T17:28:46.943Z,2.90
2018-12-05T17:31:14.402Z,2.80
2018-12-05T17:33:41.877Z,2.90
2018-12-05T17:36:09.333Z,2.90
2018-12-05T17:38:36.804Z,3.00
2018-12-05T17:41:04.375Z,2.90
2018-12-05T17:43:31.844Z,3.00
2018-12-05T17:45:59.297Z,3.10
2018-12-05T17:48:26.839Z,3.10
2018-12-05T17:50:54.306Z,3.10
2018-12-05T17:53:21.775Z,2.60
2018-12-05T17:55:49.238Z,2.50
2018-12-05T17:58:17.670Z,2.50
2018-12-05T18:00:45.143Z,2.80
2018-12-05T18:03:12.622Z,2.90
2018-12-05T18:05:40.130Z,2.80
2018-12-05T18:08:07.636Z,2.90
2018-12-05T18:10:35.115Z,2.90
2018-12-05T18:13:02.587Z,2.80
2018-12-05T18:15:30.054Z,2.80
2018-12-05T18:17:57.536Z,2.70
2018-12-05T18:20:25.034Z,2.70
2018-12-05T18:22:52.503Z,2.80
2018-12-05T18:25:20.021Z,2.80
2018-12-05T18:27:47.498Z,2.70
2018-12-05T18:30:15.050Z,2.70
2018-12-05T18:32:42.507Z,2.80
2018-12-05T18:35:10.072Z,2.80
2018-12-05T18:37:37.631Z,2.80
2018-12-05T18:40:05.219Z,2.80
2018-12-05T18:42:32.704Z,2.70
2018-12-05T18:45:00.153Z,2.70
2018-12-05T18:47:27.666Z,2.70
2018-12-05T18:49:55.131Z,2.70
2018-12-05T18:52:22.590Z,2.60
2018-12-05T18:54:50.066Z,2.60
2018-12-05T18:57:17.623Z,2.50
2018-12-05T18:59:45.121Z,2.50
2018-12-05T19:02:12.593Z,2.50
2018-12-05T19:04:40.062Z,2.60
2018-12-05T19:07:07.542Z,2.60
2018-12-05T19:09:35.003Z,2.60
2018-12-05T19:12:02.478Z,2.80
2018-12-05T19:14:35.591Z,2.90
2018-12-05T19:17:03.107Z,2.80
2018-12-05T19:19:30.571Z,2.90
2018-12-05T19:21:58.038Z,2.80
2018-12-05T19:24:25.502Z,2.90
2018-12-05T19:26:52.971Z,2.90
2018-12-05T19:29:20.431Z,3.10
2018-12-05T19:31:47.915Z,3.00
2018-12-05T19:34:15.387Z,3.00
2018-12-05T19:36:42.858Z,3.00
2018-12-05T19:39:10.351Z,3.00
2018-12-05T19:41:37.914Z,2.90
2018-12-05T19:44:05.530Z,3.00
2018-12-05T19:46:32.998Z,3.10
2018-12-05T19:49:00.463Z,2.80
2018-12-05T19:51:27.938Z,2.50
2018-12-05T19:53:55.446Z,2.40
2018-12-05T19:56:22.971Z,2.30
2018-12-05T19:58:50.434Z,2.30
2018-12-05T20:01:17.906Z,2.30
2018-12-05T20:03:46.421Z,2.40
2018-12-05T20:06:13.958Z,2.50
2018-12-05T20:08:42.443Z,2.60
2018-12-05T20:11:09.915Z,2.60
2018-12-05T20:13:37.430Z,2.60
2018-12-05T20:16:04.968Z,2.80
2018-12-05T20:18:32.487Z,3.00
2018-12-05T20:20:59.965Z,3.20
2018-12-05T20:23:27.423Z,3.00
2018-12-05T20:25:54.890Z,2.90
2018-12-05T20:28:22.367Z,2.90
2018-12-05T20:30:49.878Z,2.90
2018-12-05T20:33:17.359Z,2.80
2018-12-05T20:35:44.862Z,2.90
2018-12-05T20:38:12.334Z,3.00
2018-12-05T20:40:39.893Z,3.00
2018-12-05T20:43:07.363Z,3.00
2018-12-05T20:45:34.891Z,3.10
2018-12-05T20:48:02.351Z,3.10
2018-12-05T20:50:29.860Z,3.20
2018-12-05T20:52:57.329Z,3.30
2018-12-05T20:55:25.494Z,3.20
2018-12-05T20:57:53.938Z,3.30
2018-12-05T21:00:21.447Z,3.30
2018-12-05T21:02:48.922Z,3.30
2018-12-05T21:05:16.382Z,3.30
2018-12-05T21:07:43.880Z,3.30
2018-12-05T21:10:11.346Z,3.40
2018-12-05T21:12:38.823Z,3.40
2018-12-05T21:15:06.362Z,3.40
2018-12-05T21:17:33.830Z,3.30
2018-12-05T21:20:01.304Z,3.30
2018-12-05T21:22:28.769Z,3.30
2018-12-05T21:24:56.256Z,3.30
2018-12-05T21:27:23.726Z,3.30
2018-12-05T21:29:51.209Z,3.30
2018-12-05T21:32:18.673Z,3.30
2018-12-05T21:34:46.146Z,3.30
2018-12-05T21:37:13.602Z,3.30
2018-12-05T21:39:41.118Z,3.40
2018-12-05T21:42:08.931Z,3.40
2018-12-05T21:44:36.399Z,3.40
2018-12-05T21:47:03.933Z,3.40
2018-12-05T21:49:31.411Z,3.50
2018-12-05T21:51:58.921Z,3.40
2018-12-05T21:54:26.398Z,3.50
2018-12-05T21:56:53.873Z,3.50
2018-12-05T21:59:21.339Z,3.50
2018-12-05T22:01:48.874Z,3.50
2018-12-05T22:04:16.347Z,3.50
2018-12-05T22:06:43.802Z,3.40
2018-12-05T22:09:11.263Z,3.40
2018-12-05T22:11:38.735Z,3.50
2018-12-05T22:14:06.204Z,3.70
2018-12-05T22:16:33.742Z,3.80
2018-12-05T22:19:01.239Z,3.90
2018-12-05T22:21:28.715Z,3.90
2018-12-05T22:23:56.181Z,3.70
2018-12-05T22:26:23.662Z,3.80
2018-12-05T22:28:52.122Z,3.90
2018-12-05T22:31:19.598Z,3.60
2018-12-05T22:33:47.102Z,3.50
2018-12-05T22:36:14.603Z,3.50
2018-12-05T22:38:42.075Z,3.50
2018-12-05T22:41:09.552Z,3.60
2018-12-05T22:43:37.040Z,3.60
2018-12-05T22:46:04.538Z,3.60
2018-12-05T22:48:31.998Z,3.60
2018-12-05T22:50:59.465Z,3.50
2018-12-05T22:53:26.925Z,3.60
2018-12-05T22:55:54.403Z,3.70
2018-12-05T22:58:21.896Z,3.50
2018-12-05T23:00:51.430Z,3.40
2018-12-05T23:03:18.906Z,3.50
2018-12-05T23:05:46.566Z,3.40
2018-12-05T23:08:15.000Z,3.40
2018-12-05T23:10:42.498Z,3.40
2018-12-05T23:13:10.029Z,3.40
2018-12-05T23:15:37.506Z,3.40
2018-12-05T23:18:04.980Z,3.30
2018-12-05T23:20:32.483Z,3.30
2018-12-05T23:22:59.942Z,3.40
2018-12-05T23:25:27.427Z,3.40
2018-12-05T23:27:54.898Z,3.40
2018-12-05T23:30:22.353Z,3.40
2018-12-05T23:32:49.825Z,3.40
2018-12-05T23:35:17.296Z,3.40
2018-12-05T23:37:44.760Z,3.40
2018-12-05T23:40:12.223Z,3.50
2018-12-05T23:42:39.735Z,3.40
2018-12-05T23:45:07.541Z,3.40
2018-12-05T23:47:35.054Z,3.50
2018-12-05T23:50:02.562Z,3.50
2018-12-05T23:52:30.022Z,3.40
2018-12-05T23:54:57.526Z,3.40
2018-12-05T23:57:24.998Z,3.40
2018-12-05T23:59:52.466Z,3.30
